Time,TemperatureF,DewpointF,PressureIn,WindDirection,WindDirectionDegrees,WindSpeedMPH,WindSpeedGustMPH,Humidity,HourlyPrecipIn,Conditions,Clouds,dailyrainin,SoftwareType,DateUTC
2013-03-07 00:05:00,33.0,31.0,30.01,ENE,57,4.0,-999.0,91,-99.99,,,0.00,weatherlink.com 1.10,2013-03-07 05:05:00,
2013-03-07 00:20:00,33.0,31.0,30.01,ENE,68,10.0,-999.0,91,-99.99,,,0.00,weatherlink.com 1.10,2013-03-07 05:20:00,
2013-03-07 00:35:00,32.9,31.0,30.01,ENE,69,0.0,-999.0,91,-99.99,,,0.00,weatherlink.com 1.10,2013-03-07 05:35:00,
2013-03-07 00:50:00,32.9,31.0,30.01,NE,50,2.0,-999.0,91,-99.99,,,0.00,weatherlink.com 1.10,2013-03-07 05:50:00,
2013-03-07 01:05:00,33.0,30.0,30.00,ENE,63,7.0,-999.0,90,-99.99,,,0.00,weatherlink.com 1.10,2013-03-07 06:05:00,
2013-03-07 01:20:00,33.0,30.0,30.00,ENE,70,3.0,-999.0,90,-99.99,,,0.00,weatherlink.com 1.10,2013-03-07 06:20:00,
2013-03-07 01:35:00,32.8,30.0,29.99,North,360,1.0,-999.0,90,-99.99,,,0.00,weatherlink.com 1.10,2013-03-07 06:35:00,
2013-03-07 01:50:00,32.5,30.0,29.98,NE,46,2.0,-999.0,91,-99.99,,,0.00,weatherlink.com 1.10,2013-03-07 06:50:00,
2013-03-07 02:05:00,32.2,30.0,29.97,NE,38,1.0,-999.0,91,-99.99,,,0.00,weatherlink.com 1.10,2013-03-07 07:05:00,
2013-03-07 02:20:00,32.0,30.0,29.97,NE,34,7.0,-999.0,91,-99.99,,,0.00,weatherlink.com 1.10,2013-03-07 07:20:00,
2013-03-07 02:35:00,31.8,30.0,29.97,East,89,4.0,-999.0,91,-99.99,,,0.00,weatherlink.com 1.10,2013-03-07 07:35:00,
2013-03-07 02:50:00,31.6,29.0,29.97,NE,39,6.0,-999.0,91,-99.99,,,0.00,weatherlink.com 1.10,2013-03-07 07:50:00,
2013-03-07 03:05:00,31.4,29.0,29.97,NE,48,10.0,-999.0,91,-99.99,,,0.00,weatherlink.com 1.10,2013-03-07 08:05:00,
2013-03-07 03:20:00,31.3,29.0,29.96,NE,47,4.0,-999.0,91,-99.99,,,0.00,weatherlink.com 1.10,2013-03-07 08:20:00,
2013-03-07 03:35:00,31.3,29.0,29.96,NE,51,4.0,-999.0,91,-99.99,,,0.00,weatherlink.com 1.10,2013-03-07 08:35:00,
2013-03-07 03:50:00,31.5,29.0,29.96,ENE,63,7.0,-999.0,89,-99.99,,,0.00,weatherlink.com 1.10,2013-03-07 08:50:00,
2013-03-07 04:05:00,31.7,29.0,29.96,NE,53,5.0,-999.0,88,-99.99,,,0.00,weatherlink.com 1.10,2013-03-07 09:05:00,
2013-03-07 04:20:00,31.6,29.0,29.96,ENE,61,1.0,-999.0,88,-99.99,,,0.00,weatherlink.com 1.10,2013-03-07 09:20:00,
2013-03-07 04:35:00,31.4,28.0,29.97,NE,55,3.0,-999.0,88,-99.99,,,0.00,weatherlink.com 1.10,2013-03-07 09:35:00,
2013-03-07 04:50:00,31.5,28.0,29.96,ENE,74,5.0,-999.0,87,-99.99,,,0.00,weatherlink.com 1.10,2013-03-07 09:50:00,
2013-03-07 05:05:00,31.6,28.0,29.96,NE,56,8.0,-999.0,86,-99.99,,,0.00,weatherlink.com 1.10,2013-03-07 10:05:00,
2013-03-07 05:20:00,31.7,28.0,29.95,NE,37,7.0,-999.0,85,-99.99,,,0.00,weatherlink.com 1.10,2013-03-07 10:20:00,
2013-03-07 05:35:00,31.5,27.0,29.96,NNE,28,0.0,-999.0,84,-99.99,,,0.00,weatherlink.com 1.10,2013-03-07 10:35:00,
2013-03-07 05:50:00,31.7,27.0,29.96,NNE,22,5.0,-999.0,83,-99.99,,,0.00,weatherlink.com 1.10,2013-03-07 10:50:00,
2013-03-07 06:05:00,31.7,27.0,29.96,NE,47,1.0,-999.0,82,-99.99,,,0.00,weatherlink.com 1.10,2013-03-07 11:05:00,
2013-03-07 06:20:00,31.7,27.0,29.96,NE,41,10.0,-999.0,82,-99.99,,,0.00,weatherlink.com 1.10,2013-03-07 11:20:00,
2013-03-07 06:35:00,31.7,27.0,29.96,NE,55,6.0,-999.0,82,-99.99,,,0.00,weatherlink.com 1.10,2013-03-07 11:35:00,
2013-03-07 07:05:00,32.0,27.0,29.96,NE,42,11.0,-999.0,81,-99.99,,,0.00,weatherlink.com 1.10,2013-03-07 12:05:00,
2013-03-07 07:20:00,32.1,27.0,29.96,NNE,15,9.0,-999.0,81,-99.99,,,0.00,weatherlink.com 1.10,2013-03-07 12:20:00,
2013-03-07 07:35:00,32.4,27.0,29.96,NE,34,9.0,-999.0,79,-99.99,,,0.00,weatherlink.com 1.10,2013-03-07 12:35:00,
2013-03-07 07:50:00,32.4,27.0,29.96,NE,45,7.0,-999.0,79,-99.99,,,0.00,weatherlink.com 1.10,2013-03-07 12:50:00,
2013-03-07 08:05:00,32.4,28.0,29.97,East,92,9.0,-999.0,82,-99.99,,,0.00,weatherlink.com 1.10,2013-03-07 13:05:00,
2013-03-07 08:20:00,32.2,28.0,29.97,ENE,66,13.0,-999.0,84,-99.99,,,0.00,weatherlink.com 1.10,2013-03-07 13:20:00,
2013-03-07 08:36:00,32.4,28.0,29.98,ENE,59,6.0,-999.0,83,-99.99,,,0.00,weatherlink.com 1.10,2013-03-07 13:36:00,
2013-03-07 08:50:00,32.7,28.0,29.97,North,355,0.0,-999.0,82,-99.99,,,0.00,weatherlink.com 1.10,2013-03-07 13:50:00,
2013-03-07 09:05:00,32.9,28.0,29.97,NE,44,10.0,-999.0,81,-99.99,,,0.00,weatherlink.com 1.10,2013-03-07 14:05:00,
2013-03-07 09:20:00,33.0,28.0,29.97,NE,51,14.0,-999.0,81,-99.99,,,0.00,weatherlink.com 1.10,2013-03-07 14:20:00,
2013-03-07 09:35:00,33.0,28.0,29.96,NNE,22,9.0,-999.0,82,-99.99,,,0.00,weatherlink.com 1.10,2013-03-07 14:35:00,
2013-03-07 09:50:00,33.0,28.0,29.96,NNW,339,2.0,-999.0,83,-99.99,,,0.00,weatherlink.com 1.10,2013-03-07 14:50:00,
2013-03-07 10:05:00,32.9,29.0,29.96,NNE,32,13.0,-999.0,84,-99.99,,,0.00,weatherlink.com 1.10,2013-03-07 15:05:00,
2013-03-07 10:20:00,32.6,29.0,29.96,NNE,32,9.0,-999.0,87,-99.99,,,0.00,weatherlink.com 1.10,2013-03-07 15:20:00,
2013-03-07 10:35:00,32.3,30.0,29.96,NNE,26,9.0,-999.0,89,-99.99,,,0.00,weatherlink.com 1.10,2013-03-07 15:35:00,
2013-03-07 10:50:00,32.1,30.0,29.97,NNE,20,8.0,-999.0,91,-99.99,,,0.00,weatherlink.com 1.10,2013-03-07 15:50:00,
2013-03-07 11:05:00,32.4,30.0,29.97,NE,38,9.0,-999.0,90,-99.99,,,0.00,weatherlink.com 1.10,2013-03-07 16:05:00,
2013-03-07 11:20:00,32.3,30.0,29.97,NNE,32,3.0,-999.0,90,-99.99,,,0.00,weatherlink.com 1.10,2013-03-07 16:20:00,
2013-03-07 11:35:00,32.5,30.0,29.97,NE,51,12.0,-999.0,90,-99.99,,,0.00,weatherlink.com 1.10,2013-03-07 16:35:00,
2013-03-07 11:50:00,32.8,31.0,29.97,North,5,5.0,-999.0,91,-99.99,,,0.01,weatherlink.com 1.10,2013-03-07 16:50:00,
2013-03-07 12:05:00,32.8,31.0,29.97,ENE,63,3.0,-999.0,91,-99.99,,,0.02,weatherlink.com 1.10,2013-03-07 17:05:00,
2013-03-07 12:20:00,32.7,31.0,29.96,ENE,61,4.0,-999.0,92,-99.99,,,0.02,weatherlink.com 1.10,2013-03-07 17:20:00,
2013-03-07 12:35:00,33.0,31.0,29.96,NE,40,7.0,-999.0,92,-99.99,,,0.03,weatherlink.com 1.10,2013-03-07 17:35:00,
2013-03-07 13:05:00,33.4,31.0,29.95,NE,42,10.0,-999.0,91,-99.99,,,0.05,weatherlink.com 1.10,2013-03-07 18:05:00,
2013-03-07 13:20:00,33.9,31.0,29.95,NE,34,11.0,-999.0,90,-99.99,,,0.06,weatherlink.com 1.10,2013-03-07 18:20:00,
2013-03-07 13:35:00,33.7,31.0,29.95,NE,46,6.0,-999.0,90,-99.99,,,0.06,weatherlink.com 1.10,2013-03-07 18:35:00,
2013-03-07 13:50:00,33.3,31.0,29.95,NNE,33,6.0,-999.0,91,-99.99,,,0.06,weatherlink.com 1.10,2013-03-07 18:50:00,
2013-03-07 14:06:00,33.1,31.0,29.95,NE,51,5.0,-999.0,92,-99.99,,,0.07,weatherlink.com 1.10,2013-03-07 19:06:00,
2013-03-07 14:20:00,33.1,31.0,29.95,NE,49,3.0,-999.0,92,-99.99,,,0.07,weatherlink.com 1.10,2013-03-07 19:20:00,
2013-03-07 14:35:00,32.9,31.0,29.95,North,355,3.0,-999.0,92,-99.99,,,0.08,weatherlink.com 1.10,2013-03-07 19:35:00,
2013-03-07 14:51:00,32.8,31.0,29.95,NE,50,5.0,-999.0,93,-99.99,,,0.08,weatherlink.com 1.10,2013-03-07 19:51:00,
2013-03-07 15:06:00,32.5,31.0,29.95,ENE,68,6.0,-999.0,93,-99.99,,,0.08,weatherlink.com 1.10,2013-03-07 20:06:00,
2013-03-07 15:21:00,32.3,31.0,29.95,NE,48,0.0,-999.0,93,-99.99,,,0.09,weatherlink.com 1.10,2013-03-07 20:21:00,
2013-03-07 15:36:00,31.9,30.0,29.95,North,5,3.0,-999.0,94,-99.99,,,0.09,weatherlink.com 1.10,2013-03-07 20:36:00,
2013-03-07 15:51:00,31.5,30.0,29.94,NNE,29,12.0,-999.0,94,-99.99,,,0.09,weatherlink.com 1.10,2013-03-07 20:51:00,
2013-03-07 16:06:00,31.5,30.0,29.95,NNE,28,3.0,-999.0,94,-99.99,,,0.09,weatherlink.com 1.10,2013-03-07 21:06:00,
2013-03-07 16:21:00,31.5,30.0,29.95,NNE,18,0.0,-999.0,94,-99.99,,,0.09,weatherlink.com 1.10,2013-03-07 21:21:00,
2013-03-07 16:36:00,31.5,30.0,29.95,North,5,3.0,-999.0,93,-99.99,,,0.09,weatherlink.com 1.10,2013-03-07 21:36:00,
2013-03-07 16:51:00,31.4,30.0,29.95,NE,38,0.0,-999.0,93,-99.99,,,0.09,weatherlink.com 1.10,2013-03-07 21:51:00,
2013-03-07 17:06:00,31.2,29.0,29.95,NE,40,0.0,-999.0,93,-99.99,,,0.09,weatherlink.com 1.10,2013-03-07 22:06:00,
2013-03-07 17:21:00,31.2,29.0,29.95,NNE,31,0.0,-999.0,92,-99.99,,,0.09,weatherlink.com 1.10,2013-03-07 22:21:00,
2013-03-07 17:36:00,31.2,29.0,29.95,NE,44,3.0,-999.0,92,-99.99,,,0.09,weatherlink.com 1.10,2013-03-07 22:36:00,
2013-03-07 17:51:00,31.3,29.0,29.95,NE,42,0.0,-999.0,91,-99.99,,,0.09,weatherlink.com 1.10,2013-03-07 22:51:00,
2013-03-07 18:06:00,31.4,29.0,29.95,NE,55,0.0,-999.0,90,-99.99,,,0.09,weatherlink.com 1.10,2013-03-07 23:06:00,
2013-03-07 18:21:00,31.5,29.0,29.94,NE,42,0.0,-999.0,89,-99.99,,,0.09,weatherlink.com 1.10,2013-03-07 23:21:00,
2013-03-07 18:36:00,31.8,28.0,29.94,WNW,284,3.0,-999.0,87,-99.99,,,0.09,weatherlink.com 1.10,2013-03-07 23:36:00,
2013-03-07 18:51:00,32.2,28.0,29.94,ESE,105,5.0,-999.0,85,-99.99,,,0.09,weatherlink.com 1.10,2013-03-07 23:51:00,
2013-03-07 19:06:00,32.5,28.0,29.94,NNE,21,9.0,-999.0,84,-99.99,,,0.09,weatherlink.com 1.10,2013-03-08 00:06:00,
2013-03-07 19:21:00,32.6,28.0,29.94,North,11,7.0,-999.0,83,-99.99,,,0.09,weatherlink.com 1.10,2013-03-08 00:21:00,
2013-03-07 19:36:00,32.9,28.0,29.94,NNE,28,0.0,-999.0,82,-99.99,,,0.09,weatherlink.com 1.10,2013-03-08 00:36:00,
2013-03-07 19:51:00,33.2,28.0,29.94,NNE,22,0.0,-999.0,81,-99.99,,,0.09,weatherlink.com 1.10,2013-03-08 00:51:00,
2013-03-07 20:06:00,33.2,28.0,29.94,ENE,70,4.0,-999.0,80,-99.99,,,0.09,weatherlink.com 1.10,2013-03-08 01:06:00,
2013-03-07 20:21:00,33.1,28.0,29.94,NNE,19,3.0,-999.0,81,-99.99,,,0.09,weatherlink.com 1.10,2013-03-08 01:21:00,
2013-03-07 20:36:00,33.2,28.0,29.93,NNE,17,3.0,-999.0,80,-99.99,,,0.10,weatherlink.com 1.10,2013-03-08 01:36:00,
2013-03-07 20:51:00,33.3,28.0,29.93,NNE,21,1.0,-999.0,80,-99.99,,,0.10,weatherlink.com 1.10,2013-03-08 01:51:00,
2013-03-07 21:06:00,33.5,28.0,29.93,NE,49,4.0,-999.0,80,-99.99,,,0.10,weatherlink.com 1.10,2013-03-08 02:06:00,
2013-03-07 21:21:00,33.3,28.0,29.93,NNE,24,9.0,-999.0,82,-99.99,,,0.10,weatherlink.com 1.10,2013-03-08 02:21:00,
2013-03-07 21:36:00,32.9,28.0,29.92,NNE,23,2.0,-999.0,83,-99.99,,,0.10,weatherlink.com 1.10,2013-03-08 02:36:00,
2013-03-07 21:51:00,32.6,28.0,29.92,NNE,17,5.0,-999.0,84,-99.99,,,0.10,weatherlink.com 1.10,2013-03-08 02:51:00,
2013-03-07 22:06:00,32.4,29.0,29.92,NE,55,7.0,-999.0,86,-99.99,,,0.10,weatherlink.com 1.10,2013-03-08 03:06:00,
2013-03-07 22:21:00,32.1,29.0,29.91,North,5,3.0,-999.0,87,-99.99,,,0.10,weatherlink.com 1.10,2013-03-08 03:21:00,
2013-03-07 22:36:00,31.9,29.0,29.91,NNE,22,2.0,-999.0,88,-99.99,,,0.10,weatherlink.com 1.10,2013-03-08 03:36:00,
2013-03-07 22:51:00,31.5,29.0,29.91,North,11,4.0,-999.0,90,-99.99,,,0.10,weatherlink.com 1.10,2013-03-08 03:51:00,
2013-03-07 23:06:00,31.1,29.0,29.91,NE,49,2.0,-999.0,91,-99.99,,,0.10,weatherlink.com 1.10,2013-03-08 04:06:00,
2013-03-07 23:21:00,30.9,29.0,29.91,ENE,59,0.0,-999.0,92,-99.99,,,0.10,weatherlink.com 1.10,2013-03-08 04:21:00,
2013-03-07 23:36:00,30.7,29.0,29.90,NE,40,5.0,-999.0,92,-99.99,,,0.10,weatherlink.com 1.10,2013-03-08 04:36:00,
2013-03-07 23:51:00,30.5,29.0,29.90,East,82,3.0,-999.0,93,-99.99,,,0.10,weatherlink.com 1.10,2013-03-08 04:51:00,